sensor_id;sensor_type;location;lat;lon;timestamp;P1;durP1;ratioP1;P2;durP2;ratioP2
13415;SDS011;6779;50.150;8.680;2022-08-25T00:00:10;3.27;;;1.80;;
13415;SDS011;6779;50.150;8.680;2022-08-25T00:02:36;2.33;;;2.17;;
13415;SDS011;6779;50.150;8.680;2022-08-25T00:05:01;3.57;;;2.30;;
13415;SDS011;6779;50.150;8.680;2022-08-25T00:07:28;4.00;;;2.30;;
13415;SDS011;6779;50.150;8.680;2022-08-25T00:09:53;3.40;;;2.20;;
13415;SDS011;6779;50.150;8.680;2022-08-25T00:12:19;2.10;;;1.90;;
13415;SDS011;6779;50.150;8.680;2022-08-25T00:14:45;2.73;;;2.13;;
13415;SDS011;6779;50.150;8.680;2022-08-25T00:17:10;3.97;;;2.13;;
13415;SDS011;6779;50.150;8.680;2022-08-25T00:19:36;5.00;;;2.63;;
13415;SDS011;6779;50.150;8.680;2022-08-25T00:22:02;5.47;;;2.70;;
13415;SDS011;6779;50.150;8.680;2022-08-25T00:24:28;2.50;;;1.90;;
13415;SDS011;6779;50.150;8.680;2022-08-25T00:26:55;2.57;;;2.23;;
13415;SDS011;6779;50.150;8.680;2022-08-25T00:29:21;2.37;;;2.17;;
13415;SDS011;6779;50.150;8.680;2022-08-25T00:31:50;2.80;;;2.07;;
13415;SDS011;6779;50.150;8.680;2022-08-25T00:34:19;3.60;;;2.20;;
13415;SDS011;6779;50.150;8.680;2022-08-25T00:36:47;4.43;;;2.40;;
13415;SDS011;6779;50.150;8.680;2022-08-25T00:39:15;3.23;;;2.43;;
13415;SDS011;6779;50.150;8.680;2022-08-25T00:41:42;4.17;;;2.43;;
13415;SDS011;6779;50.150;8.680;2022-08-25T00:44:13;3.23;;;2.23;;
13415;SDS011;6779;50.150;8.680;2022-08-25T00:46:44;3.13;;;2.43;;
13415;SDS011;6779;50.150;8.680;2022-08-25T00:49:16;2.80;;;2.27;;
13415;SDS011;6779;50.150;8.680;2022-08-25T00:51:49;3.37;;;2.30;;
13415;SDS011;6779;50.150;8.680;2022-08-25T00:54:28;3.57;;;2.67;;
13415;SDS011;6779;50.150;8.680;2022-08-25T00:56:58;3.20;;;2.47;;
13415;SDS011;6779;50.150;8.680;2022-08-25T00:59:25;4.00;;;2.40;;
13415;SDS011;6779;50.150;8.680;2022-08-25T01:01:51;4.13;;;2.47;;
13415;SDS011;6779;50.150;8.680;2022-08-25T01:04:18;3.90;;;2.67;;
13415;SDS011;6779;50.150;8.680;2022-08-25T01:06:44;2.53;;;2.10;;
13415;SDS011;6779;50.150;8.680;2022-08-25T01:09:12;2.93;;;2.30;;
13415;SDS011;6779;50.150;8.680;2022-08-25T01:11:38;3.33;;;3.03;;
13415;SDS011;6779;50.150;8.680;2022-08-25T01:14:06;4.03;;;2.30;;
13415;SDS011;6779;50.150;8.680;2022-08-25T01:16:33;5.30;;;2.60;;
13415;SDS011;6779;50.150;8.680;2022-08-25T01:19:01;2.63;;;2.43;;
13415;SDS011;6779;50.150;8.680;2022-08-25T01:21:28;2.17;;;1.97;;
13415;SDS011;6779;50.150;8.680;2022-08-25T01:23:56;2.33;;;2.13;;
13415;SDS011;6779;50.150;8.680;2022-08-25T01:26:25;2.50;;;2.30;;
13415;SDS011;6779;50.150;8.680;2022-08-25T01:28:56;2.57;;;2.37;;
13415;SDS011;6779;50.150;8.680;2022-08-25T01:31:42;3.37;;;2.67;;
13415;SDS011;6779;50.150;8.680;2022-08-25T01:34:08;5.03;;;2.60;;
13415;SDS011;6779;50.150;8.680;2022-08-25T01:36:39;2.80;;;2.40;;
13415;SDS011;6779;50.150;8.680;2022-08-25T01:39:06;3.57;;;3.00;;
13415;SDS011;6779;50.150;8.680;2022-08-25T01:44:26;3.37;;;3.03;;
13415;SDS011;6779;50.150;8.680;2022-08-25T01:46:52;3.20;;;2.77;;
13415;SDS011;6779;50.150;8.680;2022-08-25T01:49:18;3.03;;;2.70;;
13415;SDS011;6779;50.150;8.680;2022-08-25T01:54:48;2.97;;;2.60;;
13415;SDS011;6779;50.150;8.680;2022-08-25T01:57:14;4.33;;;2.43;;
13415;SDS011;6779;50.150;8.680;2022-08-25T01:59:40;3.20;;;2.90;;
13415;SDS011;6779;50.150;8.680;2022-08-25T02:02:06;4.47;;;2.70;;
13415;SDS011;6779;50.150;8.680;2022-08-25T02:04:33;3.50;;;2.73;;
13415;SDS011;6779;50.150;8.680;2022-08-25T02:06:59;3.37;;;2.97;;
13415;SDS011;6779;50.150;8.680;2022-08-25T02:09:25;4.40;;;3.03;;
13415;SDS011;6779;50.150;8.680;2022-08-25T02:11:51;3.47;;;2.37;;
13415;SDS011;6779;50.150;8.680;2022-08-25T02:14:17;3.93;;;3.10;;
13415;SDS011;6779;50.150;8.680;2022-08-25T02:16:45;4.03;;;2.63;;
13415;SDS011;6779;50.150;8.680;2022-08-25T02:19:13;4.30;;;2.80;;
13415;SDS011;6779;50.150;8.680;2022-08-25T02:21:39;3.70;;;2.60;;
13415;SDS011;6779;50.150;8.680;2022-08-25T02:24:05;3.33;;;2.73;;
13415;SDS011;6779;50.150;8.680;2022-08-25T02:26:31;3.43;;;3.00;;
13415;SDS011;6779;50.150;8.680;2022-08-25T02:28:58;3.70;;;2.80;;
13415;SDS011;6779;50.150;8.680;2022-08-25T02:31:24;4.63;;;3.23;;
13415;SDS011;6779;50.150;8.680;2022-08-25T02:33:51;3.17;;;2.67;;
13415;SDS011;6779;50.150;8.680;2022-08-25T02:36:17;3.67;;;2.67;;
13415;SDS011;6779;50.150;8.680;2022-08-25T02:38:44;4.93;;;3.40;;
13415;SDS011;6779;50.150;8.680;2022-08-25T02:41:12;3.67;;;3.10;;
13415;SDS011;6779;50.150;8.680;2022-08-25T02:43:41;4.90;;;3.20;;
13415;SDS011;6779;50.150;8.680;2022-08-25T02:46:08;4.43;;;3.00;;
13415;SDS011;6779;50.150;8.680;2022-08-25T02:48:35;3.83;;;3.13;;
13415;SDS011;6779;50.150;8.680;2022-08-25T02:51:02;6.77;;;3.90;;
13415;SDS011;6779;50.150;8.680;2022-08-25T02:53:30;3.30;;;2.97;;
13415;SDS011;6779;50.150;8.680;2022-08-25T02:55:57;3.27;;;2.93;;
13415;SDS011;6779;50.150;8.680;2022-08-25T02:58:23;3.53;;;2.90;;
13415;SDS011;6779;50.150;8.680;2022-08-25T03:00:49;3.37;;;2.37;;
13415;SDS011;6779;50.150;8.680;2022-08-25T03:03:15;3.10;;;2.80;;
13415;SDS011;6779;50.150;8.680;2022-08-25T03:05:41;3.90;;;2.77;;
13415;SDS011;6779;50.150;8.680;2022-08-25T03:08:07;3.13;;;2.43;;
13415;SDS011;6779;50.150;8.680;2022-08-25T03:10:33;3.33;;;2.80;;
13415;SDS011;6779;50.150;8.680;2022-08-25T03:12:59;8.17;;;5.00;;
13415;SDS011;6779;50.150;8.680;2022-08-25T03:15:25;4.50;;;3.30;;
13415;SDS011;6779;50.150;8.680;2022-08-25T03:17:52;4.10;;;3.37;;
13415;SDS011;6779;50.150;8.680;2022-08-25T03:20:20;3.20;;;2.60;;
13415;SDS011;6779;50.150;8.680;2022-08-25T03:22:47;3.53;;;3.23;;
13415;SDS011;6779;50.150;8.680;2022-08-25T03:25:13;3.70;;;3.30;;
13415;SDS011;6779;50.150;8.680;2022-08-25T03:27:58;3.80;;;2.90;;
13415;SDS011;6779;50.150;8.680;2022-08-25T03:30:23;4.07;;;2.90;;
13415;SDS011;6779;50.150;8.680;2022-08-25T03:32:50;3.83;;;3.00;;
13415;SDS011;6779;50.150;8.680;2022-08-25T03:35:16;4.07;;;3.27;;
13415;SDS011;6779;50.150;8.680;2022-08-25T03:37:41;4.30;;;3.27;;
13415;SDS011;6779;50.150;8.680;2022-08-25T03:40:08;5.90;;;3.50;;
13415;SDS011;6779;50.150;8.680;2022-08-25T03:42:39;5.90;;;3.17;;
13415;SDS011;6779;50.150;8.680;2022-08-25T03:45:06;3.70;;;3.00;;
13415;SDS011;6779;50.150;8.680;2022-08-25T03:47:33;4.60;;;3.47;;
13415;SDS011;6779;50.150;8.680;2022-08-25T03:49:58;4.60;;;3.00;;
13415;SDS011;6779;50.150;8.680;2022-08-25T03:52:24;5.47;;;3.40;;
13415;SDS011;6779;50.150;8.680;2022-08-25T03:54:50;3.57;;;2.97;;
13415;SDS011;6779;50.150;8.680;2022-08-25T03:57:15;4.70;;;3.30;;
13415;SDS011;6779;50.150;8.680;2022-08-25T03:59:41;3.20;;;2.90;;
13415;SDS011;6779;50.150;8.680;2022-08-25T04:02:07;3.63;;;3.27;;
13415;SDS011;6779;50.150;8.680;2022-08-25T04:04:32;5.33;;;3.33;;
13415;SDS011;6779;50.150;8.680;2022-08-25T04:06:59;3.40;;;2.90;;
13415;SDS011;6779;50.150;8.680;2022-08-25T04:09:24;3.77;;;3.37;;
13415;SDS011;6779;50.150;8.680;2022-08-25T04:11:50;2.90;;;2.67;;
13415;SDS011;6779;50.150;8.680;2022-08-25T04:14:16;5.80;;;3.50;;
13415;SDS011;6779;50.150;8.680;2022-08-25T04:16:42;4.37;;;3.07;;
13415;SDS011;6779;50.150;8.680;2022-08-25T04:19:08;5.80;;;3.13;;
13415;SDS011;6779;50.150;8.680;2022-08-25T04:21:35;3.93;;;2.97;;
13415;SDS011;6779;50.150;8.680;2022-08-25T04:24:03;5.60;;;3.37;;
13415;SDS011;6779;50.150;8.680;2022-08-25T04:26:31;4.77;;;3.40;;
13415;SDS011;6779;50.150;8.680;2022-08-25T04:29:00;6.97;;;3.50;;
13415;SDS011;6779;50.150;8.680;2022-08-25T04:31:27;6.20;;;3.73;;
13415;SDS011;6779;50.150;8.680;2022-08-25T04:33:54;4.83;;;3.33;;
13415;SDS011;6779;50.150;8.680;2022-08-25T04:36:20;3.87;;;3.17;;
13415;SDS011;6779;50.150;8.680;2022-08-25T04:38:47;4.77;;;3.57;;
13415;SDS011;6779;50.150;8.680;2022-08-25T04:41:14;5.23;;;3.60;;
13415;SDS011;6779;50.150;8.680;2022-08-25T04:43:42;4.40;;;3.20;;
13415;SDS011;6779;50.150;8.680;2022-08-25T04:46:13;4.47;;;3.83;;
13415;SDS011;6779;50.150;8.680;2022-08-25T04:48:41;3.77;;;3.43;;
13415;SDS011;6779;50.150;8.680;2022-08-25T04:51:09;3.93;;;3.50;;
13415;SDS011;6779;50.150;8.680;2022-08-25T04:53:37;5.77;;;3.67;;
13415;SDS011;6779;50.150;8.680;2022-08-25T04:56:07;4.77;;;3.47;;
13415;SDS011;6779;50.150;8.680;2022-08-25T04:58:34;5.70;;;3.80;;
13415;SDS011;6779;50.150;8.680;2022-08-25T05:01:01;3.90;;;3.47;;
13415;SDS011;6779;50.150;8.680;2022-08-25T05:03:28;4.20;;;3.00;;
13415;SDS011;6779;50.150;8.680;2022-08-25T05:05:55;5.43;;;3.77;;
13415;SDS011;6779;50.150;8.680;2022-08-25T05:08:20;6.03;;;3.93;;
13415;SDS011;6779;50.150;8.680;2022-08-25T05:10:46;5.70;;;3.70;;
13415;SDS011;6779;50.150;8.680;2022-08-25T05:13:11;5.37;;;3.90;;
13415;SDS011;6779;50.150;8.680;2022-08-25T05:15:37;4.00;;;3.60;;
13415;SDS011;6779;50.150;8.680;2022-08-25T05:18:15;4.63;;;3.67;;
13415;SDS011;6779;50.150;8.680;2022-08-25T05:20:41;4.60;;;3.30;;
13415;SDS011;6779;50.150;8.680;2022-08-25T05:23:07;7.77;;;4.27;;
13415;SDS011;6779;50.150;8.680;2022-08-25T05:25:32;5.80;;;3.70;;
13415;SDS011;6779;50.150;8.680;2022-08-25T05:27:58;5.40;;;3.63;;
13415;SDS011;6779;50.150;8.680;2022-08-25T05:30:24;4.70;;;3.50;;
13415;SDS011;6779;50.150;8.680;2022-08-25T05:32:49;7.07;;;4.50;;
13415;SDS011;6779;50.150;8.680;2022-08-25T05:35:15;7.63;;;3.70;;
13415;SDS011;6779;50.150;8.680;2022-08-25T05:37:41;6.17;;;3.87;;
13415;SDS011;6779;50.150;8.680;2022-08-25T05:40:07;9.73;;;4.20;;
13415;SDS011;6779;50.150;8.680;2022-08-25T05:42:33;6.47;;;4.30;;
13415;SDS011;6779;50.150;8.680;2022-08-25T05:44:59;6.70;;;4.60;;
13415;SDS011;6779;50.150;8.680;2022-08-25T05:47:25;6.30;;;4.43;;
13415;SDS011;6779;50.150;8.680;2022-08-25T05:49:50;9.70;;;5.27;;
13415;SDS011;6779;50.150;8.680;2022-08-25T05:52:16;7.40;;;4.47;;
13415;SDS011;6779;50.150;8.680;2022-08-25T05:54:42;7.57;;;5.30;;
13415;SDS011;6779;50.150;8.680;2022-08-25T05:57:07;9.63;;;5.00;;
13415;SDS011;6779;50.150;8.680;2022-08-25T05:59:33;9.67;;;5.33;;
13415;SDS011;6779;50.150;8.680;2022-08-25T06:01:59;7.80;;;5.20;;
13415;SDS011;6779;50.150;8.680;2022-08-25T06:04:43;7.37;;;5.30;;
13415;SDS011;6779;50.150;8.680;2022-08-25T06:07:09;7.67;;;5.43;;
13415;SDS011;6779;50.150;8.680;2022-08-25T06:09:36;7.27;;;4.80;;
13415;SDS011;6779;50.150;8.680;2022-08-25T06:12:03;8.47;;;5.33;;
13415;SDS011;6779;50.150;8.680;2022-08-25T06:14:29;8.77;;;5.57;;
13415;SDS011;6779;50.150;8.680;2022-08-25T06:16:55;8.87;;;5.20;;
13415;SDS011;6779;50.150;8.680;2022-08-25T06:19:20;9.87;;;5.83;;
13415;SDS011;6779;50.150;8.680;2022-08-25T06:21:47;7.87;;;5.03;;
13415;SDS011;6779;50.150;8.680;2022-08-25T06:24:13;7.27;;;4.87;;
13415;SDS011;6779;50.150;8.680;2022-08-25T06:26:38;10.83;;;5.50;;
13415;SDS011;6779;50.150;8.680;2022-08-25T06:29:04;10.50;;;6.10;;
13415;SDS011;6779;50.150;8.680;2022-08-25T06:31:29;10.43;;;6.00;;
13415;SDS011;6779;50.150;8.680;2022-08-25T06:33:55;10.93;;;6.20;;
13415;SDS011;6779;50.150;8.680;2022-08-25T06:36:22;9.83;;;5.80;;
13415;SDS011;6779;50.150;8.680;2022-08-25T06:38:47;12.83;;;6.97;;
13415;SDS011;6779;50.150;8.680;2022-08-25T06:41:13;9.60;;;6.80;;
13415;SDS011;6779;50.150;8.680;2022-08-25T06:43:40;12.40;;;6.33;;
13415;SDS011;6779;50.150;8.680;2022-08-25T06:46:17;11.90;;;5.97;;
13415;SDS011;6779;50.150;8.680;2022-08-25T06:48:45;7.03;;;5.17;;
13415;SDS011;6779;50.150;8.680;2022-08-25T06:51:12;8.77;;;5.67;;
13415;SDS011;6779;50.150;8.680;2022-08-25T06:53:40;9.87;;;5.97;;
13415;SDS011;6779;50.150;8.680;2022-08-25T06:56:06;8.17;;;5.70;;
13415;SDS011;6779;50.150;8.680;2022-08-25T06:58:32;10.50;;;6.20;;
13415;SDS011;6779;50.150;8.680;2022-08-25T07:03:40;8.30;;;6.20;;
13415;SDS011;6779;50.150;8.680;2022-08-25T07:06:07;8.37;;;5.87;;
13415;SDS011;6779;50.150;8.680;2022-08-25T07:08:32;10.00;;;5.83;;
13415;SDS011;6779;50.150;8.680;2022-08-25T07:11:03;11.20;;;6.33;;
13415;SDS011;6779;50.150;8.680;2022-08-25T07:13:33;7.17;;;5.57;;
13415;SDS011;6779;50.150;8.680;2022-08-25T07:16:00;8.73;;;5.80;;
13415;SDS011;6779;50.150;8.680;2022-08-25T07:18:25;9.83;;;6.33;;
13415;SDS011;6779;50.150;8.680;2022-08-25T07:20:51;7.03;;;5.67;;
13415;SDS011;6779;50.150;8.680;2022-08-25T07:23:18;10.10;;;6.03;;
13415;SDS011;6779;50.150;8.680;2022-08-25T07:25:45;7.07;;;5.83;;
13415;SDS011;6779;50.150;8.680;2022-08-25T07:28:10;8.20;;;6.40;;
13415;SDS011;6779;50.150;8.680;2022-08-25T07:30:36;9.03;;;6.20;;
13415;SDS011;6779;50.150;8.680;2022-08-25T07:33:02;10.63;;;6.63;;
13415;SDS011;6779;50.150;8.680;2022-08-25T07:35:27;8.50;;;6.03;;
13415;SDS011;6779;50.150;8.680;2022-08-25T07:37:56;9.90;;;6.37;;
13415;SDS011;6779;50.150;8.680;2022-08-25T07:40:27;9.27;;;6.80;;
13415;SDS011;6779;50.150;8.680;2022-08-25T07:42:56;9.77;;;6.00;;
13415;SDS011;6779;50.150;8.680;2022-08-25T07:45:24;10.27;;;6.83;;
13415;SDS011;6779;50.150;8.680;2022-08-25T07:47:56;10.43;;;6.57;;
13415;SDS011;6779;50.150;8.680;2022-08-25T07:50:22;10.47;;;6.00;;
13415;SDS011;6779;50.150;8.680;2022-08-25T07:52:48;10.87;;;6.10;;
13415;SDS011;6779;50.150;8.680;2022-08-25T07:55:13;8.97;;;6.50;;
13415;SDS011;6779;50.150;8.680;2022-08-25T07:57:39;9.97;;;7.30;;
13415;SDS011;6779;50.150;8.680;2022-08-25T08:00:07;7.97;;;6.00;;
13415;SDS011;6779;50.150;8.680;2022-08-25T08:02:34;7.50;;;5.57;;
13415;SDS011;6779;50.150;8.680;2022-08-25T08:05:02;8.50;;;7.00;;
13415;SDS011;6779;50.150;8.680;2022-08-25T08:07:28;10.57;;;6.37;;
13415;SDS011;6779;50.150;8.680;2022-08-25T08:09:54;8.33;;;5.93;;
13415;SDS011;6779;50.150;8.680;2022-08-25T08:12:20;9.03;;;6.47;;
13415;SDS011;6779;50.150;8.680;2022-08-25T08:14:45;10.33;;;6.90;;
13415;SDS011;6779;50.150;8.680;2022-08-25T08:17:11;8.73;;;7.00;;
13415;SDS011;6779;50.150;8.680;2022-08-25T08:19:37;8.83;;;6.40;;
13415;SDS011;6779;50.150;8.680;2022-08-25T08:22:03;9.73;;;6.83;;
13415;SDS011;6779;50.150;8.680;2022-08-25T08:24:30;10.20;;;7.07;;
13415;SDS011;6779;50.150;8.680;2022-08-25T08:26:58;10.07;;;6.43;;
13415;SDS011;6779;50.150;8.680;2022-08-25T08:29:23;9.33;;;7.07;;
13415;SDS011;6779;50.150;8.680;2022-08-25T08:31:49;10.37;;;6.87;;
13415;SDS011;6779;50.150;8.680;2022-08-25T08:34:15;8.60;;;6.43;;
13415;SDS011;6779;50.150;8.680;2022-08-25T08:36:41;8.57;;;5.83;;
13415;SDS011;6779;50.150;8.680;2022-08-25T08:39:07;7.27;;;5.77;;
13415;SDS011;6779;50.150;8.680;2022-08-25T08:41:49;7.43;;;6.43;;
13415;SDS011;6779;50.150;8.680;2022-08-25T08:55:31;8.50;;;6.10;;
13415;SDS011;6779;50.150;8.680;2022-08-25T08:58:02;8.17;;;6.73;;
13415;SDS011;6779;50.150;8.680;2022-08-25T09:00:36;7.60;;;5.67;;
13415;SDS011;6779;50.150;8.680;2022-08-25T09:03:19;7.50;;;5.27;;
13415;SDS011;6779;50.150;8.680;2022-08-25T09:06:00;6.80;;;6.10;;
13415;SDS011;6779;50.150;8.680;2022-08-25T09:08:31;8.48;;;6.18;;
13415;SDS011;6779;50.150;8.680;2022-08-25T09:11:02;7.05;;;5.50;;
13415;SDS011;6779;50.150;8.680;2022-08-25T09:18:57;8.10;;;5.70;;
13415;SDS011;6779;50.150;8.680;2022-08-25T09:21:50;6.28;;;5.07;;
13415;SDS011;6779;50.150;8.680;2022-08-25T09:32:20;6.88;;;4.47;;
13415;SDS011;6779;50.150;8.680;2022-08-25T09:34:46;4.55;;;4.15;;
13415;SDS011;6779;50.150;8.680;2022-08-25T09:37:14;6.38;;;3.95;;
13415;SDS011;6779;50.150;8.680;2022-08-25T09:39:40;5.57;;;3.90;;
13415;SDS011;6779;50.150;8.680;2022-08-25T09:42:06;5.50;;;4.00;;
13415;SDS011;6779;50.150;8.680;2022-08-25T09:49:55;5.20;;;4.70;;
13415;SDS011;6779;50.150;8.680;2022-08-25T09:54:55;4.43;;;4.03;;
13415;SDS011;6779;50.150;8.680;2022-08-25T10:05:36;4.78;;;4.38;;
13415;SDS011;6779;50.150;8.680;2022-08-25T10:08:13;5.05;;;4.65;;
13415;SDS011;6779;50.150;8.680;2022-08-25T10:10:55;5.20;;;4.70;;
13415;SDS011;6779;50.150;8.680;2022-08-25T10:13:35;4.72;;;4.30;;
13415;SDS011;6779;50.150;8.680;2022-08-25T10:16:39;6.05;;;4.65;;
13415;SDS011;6779;50.150;8.680;2022-08-25T10:19:05;5.35;;;4.85;;
13415;SDS011;6779;50.150;8.680;2022-08-25T10:21:32;4.63;;;4.22;;
13415;SDS011;6779;50.150;8.680;2022-08-25T10:23:59;5.38;;;4.97;;
13415;SDS011;6779;50.150;8.680;2022-08-25T10:26:29;5.03;;;4.63;;
13415;SDS011;6779;50.150;8.680;2022-08-25T10:32:22;4.70;;;4.30;;
13415;SDS011;6779;50.150;8.680;2022-08-25T10:35:11;4.43;;;4.03;;
13415;SDS011;6779;50.150;8.680;2022-08-25T10:40:39;4.55;;;4.15;;
13415;SDS011;6779;50.150;8.680;2022-08-25T10:46:00;4.88;;;4.47;;
13415;SDS011;6779;50.150;8.680;2022-08-25T10:54:07;4.75;;;4.35;;
13415;SDS011;6779;50.150;8.680;2022-08-25T10:56:39;5.90;;;5.30;;
13415;SDS011;6779;50.150;8.680;2022-08-25T11:02:11;5.35;;;4.78;;
13415;SDS011;6779;50.150;8.680;2022-08-25T11:05:02;6.00;;;5.40;;
13415;SDS011;6779;50.150;8.680;2022-08-25T11:07:34;4.82;;;4.43;;
13415;SDS011;6779;50.150;8.680;2022-08-25T11:10:10;5.05;;;4.55;;
13415;SDS011;6779;50.150;8.680;2022-08-25T11:12:43;11.23;;;8.18;;
13415;SDS011;6779;50.150;8.680;2022-08-25T11:15:16;6.88;;;6.18;;
13415;SDS011;6779;50.150;8.680;2022-08-25T11:17:54;5.72;;;4.88;;
13415;SDS011;6779;50.150;8.680;2022-08-25T11:20:33;4.18;;;3.78;;
13415;SDS011;6779;50.150;8.680;2022-08-25T11:25:42;4.13;;;3.83;;
13415;SDS011;6779;50.150;8.680;2022-08-25T11:30:42;5.60;;;4.13;;
13415;SDS011;6779;50.150;8.680;2022-08-25T11:33:16;5.20;;;4.70;;
13415;SDS011;6779;50.150;8.680;2022-08-25T11:35:44;5.40;;;4.20;;
13415;SDS011;6779;50.150;8.680;2022-08-25T11:41:30;5.97;;;4.35;;
13415;SDS011;6779;50.150;8.680;2022-08-25T11:49:47;4.53;;;4.13;;
13415;SDS011;6779;50.150;8.680;2022-08-25T11:57:52;5.18;;;4.40;;
13415;SDS011;6779;50.150;8.680;2022-08-25T12:00:41;8.05;;;5.40;;
13415;SDS011;6779;50.150;8.680;2022-08-25T12:08:48;4.85;;;4.03;;
13415;SDS011;6779;50.150;8.680;2022-08-25T12:19:24;4.38;;;3.50;;
13415;SDS011;6779;50.150;8.680;2022-08-25T12:21:50;4.30;;;3.90;;
13415;SDS011;6779;50.150;8.680;2022-08-25T12:24:19;5.43;;;3.78;;
13415;SDS011;6779;50.150;8.680;2022-08-25T12:27:04;5.45;;;3.97;;
13415;SDS011;6779;50.150;8.680;2022-08-25T12:30:18;4.53;;;3.90;;
13415;SDS011;6779;50.150;8.680;2022-08-25T12:35:30;7.18;;;3.97;;
13415;SDS011;6779;50.150;8.680;2022-08-25T12:38:08;4.75;;;4.15;;
13415;SDS011;6779;50.150;8.680;2022-08-25T12:41:02;4.38;;;3.90;;
13415;SDS011;6779;50.150;8.680;2022-08-25T12:43:34;7.78;;;4.32;;
13415;SDS011;6779;50.150;8.680;2022-08-25T12:51:59;8.30;;;4.00;;
13415;SDS011;6779;50.150;8.680;2022-08-25T12:54:47;5.05;;;3.85;;
13415;SDS011;6779;50.150;8.680;2022-08-25T12:57:35;3.95;;;3.55;;
13415;SDS011;6779;50.150;8.680;2022-08-25T13:00:12;4.95;;;3.92;;
13415;SDS011;6779;50.150;8.680;2022-08-25T13:13:15;4.95;;;3.65;;
13415;SDS011;6779;50.150;8.680;2022-08-25T13:16:02;3.90;;;3.50;;
13415;SDS011;6779;50.150;8.680;2022-08-25T13:18:32;5.47;;;3.80;;
13415;SDS011;6779;50.150;8.680;2022-08-25T13:21:03;4.78;;;4.03;;
13415;SDS011;6779;50.150;8.680;2022-08-25T13:23:45;6.07;;;3.65;;
13415;SDS011;6779;50.150;8.680;2022-08-25T13:26:20;3.72;;;3.42;;
13415;SDS011;6779;50.150;8.680;2022-08-25T13:28:59;4.00;;;3.63;;
13415;SDS011;6779;50.150;8.680;2022-08-25T13:31:31;6.93;;;4.45;;
13415;SDS011;6779;50.150;8.680;2022-08-25T13:34:02;5.35;;;4.25;;
13415;SDS011;6779;50.150;8.680;2022-08-25T13:36:32;4.63;;;3.90;;
13415;SDS011;6779;50.150;8.680;2022-08-25T13:39:24;6.00;;;3.88;;
13415;SDS011;6779;50.150;8.680;2022-08-25T13:41:52;4.35;;;3.78;;
13415;SDS011;6779;50.150;8.680;2022-08-25T13:44:20;4.47;;;3.75;;
13415;SDS011;6779;50.150;8.680;2022-08-25T13:47:03;4.60;;;4.15;;
13415;SDS011;6779;50.150;8.680;2022-08-25T13:49:34;3.83;;;3.17;;
13415;SDS011;6779;50.150;8.680;2022-08-25T13:52:00;4.43;;;3.55;;
13415;SDS011;6779;50.150;8.680;2022-08-25T13:54:27;4.03;;;3.67;;
13415;SDS011;6779;50.150;8.680;2022-08-25T14:00:04;3.63;;;3.17;;
13415;SDS011;6779;50.150;8.680;2022-08-25T14:02:47;3.47;;;3.15;;
13415;SDS011;6779;50.150;8.680;2022-08-25T14:05:15;3.80;;;3.40;;
13415;SDS011;6779;50.150;8.680;2022-08-25T14:07:55;5.90;;;3.60;;
13415;SDS011;6779;50.150;8.680;2022-08-25T14:10:38;3.95;;;3.30;;
13415;SDS011;6779;50.150;8.680;2022-08-25T14:13:14;5.00;;;3.40;;
13415;SDS011;6779;50.150;8.680;2022-08-25T14:15:52;5.25;;;3.30;;
13415;SDS011;6779;50.150;8.680;2022-08-25T14:18:20;4.40;;;3.42;;
13415;SDS011;6779;50.150;8.680;2022-08-25T14:20:51;4.50;;;3.45;;
13415;SDS011;6779;50.150;8.680;2022-08-25T14:23:21;3.55;;;3.25;;
13415;SDS011;6779;50.150;8.680;2022-08-25T14:25:50;4.03;;;3.63;;
13415;SDS011;6779;50.150;8.680;2022-08-25T14:28:18;3.80;;;3.40;;
13415;SDS011;6779;50.150;8.680;2022-08-25T14:30:50;3.70;;;3.30;;
13415;SDS011;6779;50.150;8.680;2022-08-25T14:33:19;5.90;;;3.65;;
13415;SDS011;6779;50.150;8.680;2022-08-25T14:35:47;4.57;;;3.63;;
13415;SDS011;6779;50.150;8.680;2022-08-25T14:38:15;4.05;;;3.28;;
13415;SDS011;6779;50.150;8.680;2022-08-25T14:40:42;4.30;;;3.90;;
13415;SDS011;6779;50.150;8.680;2022-08-25T14:43:08;4.10;;;3.65;;
13415;SDS011;6779;50.150;8.680;2022-08-25T14:45:35;4.30;;;3.88;;
13415;SDS011;6779;50.150;8.680;2022-08-25T14:48:04;4.10;;;3.63;;
13415;SDS011;6779;50.150;8.680;2022-08-25T14:50:32;4.43;;;3.67;;
13415;SDS011;6779;50.150;8.680;2022-08-25T14:52:59;4.60;;;3.17;;
13415;SDS011;6779;50.150;8.680;2022-08-25T14:55:24;4.47;;;3.92;;
13415;SDS011;6779;50.150;8.680;2022-08-25T14:57:50;5.93;;;4.05;;
13415;SDS011;6779;50.150;8.680;2022-08-25T15:00:15;6.75;;;4.05;;
13415;SDS011;6779;50.150;8.680;2022-08-25T15:02:41;5.03;;;3.95;;
13415;SDS011;6779;50.150;8.680;2022-08-25T15:05:09;4.22;;;3.83;;
13415;SDS011;6779;50.150;8.680;2022-08-25T15:07:37;4.32;;;3.80;;
13415;SDS011;6779;50.150;8.680;2022-08-25T15:10:21;4.25;;;3.72;;
13415;SDS011;6779;50.150;8.680;2022-08-25T15:12:47;4.28;;;3.67;;
13415;SDS011;6779;50.150;8.680;2022-08-25T15:15:14;4.55;;;3.53;;
13415;SDS011;6779;50.150;8.680;2022-08-25T15:17:40;4.82;;;3.88;;
13415;SDS011;6779;50.150;8.680;2022-08-25T15:20:07;5.28;;;4.18;;
13415;SDS011;6779;50.150;8.680;2022-08-25T15:22:33;3.55;;;3.03;;
13415;SDS011;6779;50.150;8.680;2022-08-25T15:24:58;3.97;;;3.58;;
13415;SDS011;6779;50.150;8.680;2022-08-25T15:27:24;3.88;;;3.50;;
13415;SDS011;6779;50.150;8.680;2022-08-25T15:29:49;4.53;;;4.13;;
13415;SDS011;6779;50.150;8.680;2022-08-25T15:32:15;5.22;;;3.95;;
13415;SDS011;6779;50.150;8.680;2022-08-25T15:34:41;4.38;;;3.53;;
13415;SDS011;6779;50.150;8.680;2022-08-25T15:37:07;5.18;;;4.25;;
13415;SDS011;6779;50.150;8.680;2022-08-25T15:39:35;4.47;;;3.97;;
13415;SDS011;6779;50.150;8.680;2022-08-25T15:42:02;5.53;;;4.05;;
13415;SDS011;6779;50.150;8.680;2022-08-25T15:44:29;4.13;;;3.72;;
13415;SDS011;6779;50.150;8.680;2022-08-25T15:46:55;5.53;;;3.78;;
13415;SDS011;6779;50.150;8.680;2022-08-25T15:49:22;6.47;;;3.55;;
13415;SDS011;6779;50.150;8.680;2022-08-25T15:51:47;4.50;;;4.10;;
13415;SDS011;6779;50.150;8.680;2022-08-25T15:54:13;4.07;;;3.67;;
13415;SDS011;6779;50.150;8.680;2022-08-25T15:56:39;5.38;;;3.63;;
13415;SDS011;6779;50.150;8.680;2022-08-25T15:59:05;6.03;;;4.43;;
13415;SDS011;6779;50.150;8.680;2022-08-25T16:01:32;5.65;;;3.72;;
13415;SDS011;6779;50.150;8.680;2022-08-25T16:03:57;4.63;;;3.97;;
13415;SDS011;6779;50.150;8.680;2022-08-25T16:06:24;5.75;;;3.80;;
13415;SDS011;6779;50.150;8.680;2022-08-25T16:08:50;4.70;;;3.80;;
13415;SDS011;6779;50.150;8.680;2022-08-25T16:11:17;4.10;;;3.38;;
13415;SDS011;6779;50.150;8.680;2022-08-25T16:13:46;4.85;;;4.13;;
13415;SDS011;6779;50.150;8.680;2022-08-25T16:16:13;4.75;;;4.05;;
13415;SDS011;6779;50.150;8.680;2022-08-25T16:18:40;5.85;;;4.28;;
13415;SDS011;6779;50.150;8.680;2022-08-25T16:21:08;5.88;;;3.65;;
13415;SDS011;6779;50.150;8.680;2022-08-25T16:23:35;5.13;;;4.22;;
13415;SDS011;6779;50.150;8.680;2022-08-25T16:26:03;5.00;;;4.15;;
13415;SDS011;6779;50.150;8.680;2022-08-25T16:28:31;3.88;;;3.50;;
13415;SDS011;6779;50.150;8.680;2022-08-25T16:30:56;4.60;;;3.90;;
13415;SDS011;6779;50.150;8.680;2022-08-25T16:33:22;4.57;;;3.70;;
13415;SDS011;6779;50.150;8.680;2022-08-25T16:35:47;3.97;;;3.45;;
13415;SDS011;6779;50.150;8.680;2022-08-25T16:38:13;5.90;;;3.15;;
13415;SDS011;6779;50.150;8.680;2022-08-25T16:40:39;4.88;;;4.28;;
13415;SDS011;6779;50.150;8.680;2022-08-25T16:43:06;4.57;;;3.40;;
13415;SDS011;6779;50.150;8.680;2022-08-25T16:45:33;4.88;;;3.63;;
13415;SDS011;6779;50.150;8.680;2022-08-25T16:47:58;5.97;;;4.07;;
13415;SDS011;6779;50.150;8.680;2022-08-25T16:50:24;4.03;;;3.58;;
13415;SDS011;6779;50.150;8.680;2022-08-25T16:52:49;5.75;;;3.47;;
13415;SDS011;6779;50.150;8.680;2022-08-25T16:55:34;6.05;;;3.72;;
13415;SDS011;6779;50.150;8.680;2022-08-25T16:58:00;6.03;;;4.32;;
13415;SDS011;6779;50.150;8.680;2022-08-25T17:00:26;5.70;;;3.92;;
13415;SDS011;6779;50.150;8.680;2022-08-25T17:02:57;4.45;;;3.63;;
13415;SDS011;6779;50.150;8.680;2022-08-25T17:05:25;7.30;;;3.58;;
13415;SDS011;6779;50.150;8.680;2022-08-25T17:07:53;6.40;;;3.65;;
13415;SDS011;6779;50.150;8.680;2022-08-25T17:10:42;5.78;;;4.63;;
13415;SDS011;6779;50.150;8.680;2022-08-25T17:13:07;4.95;;;3.67;;